createdAt,value
2023-03-21T00:02:08.874Z,8.40
2023-03-21T00:04:58.510Z,8.41
2023-03-21T00:07:49.771Z,8.55
2023-03-21T00:10:41.909Z,8.62
2023-03-21T00:13:34.327Z,8.56
2023-03-21T00:16:25.043Z,8.40
2023-03-21T00:19:14.430Z,8.30
2023-03-21T00:22:08.091Z,8.24
2023-03-21T00:24:55.480Z,8.23
2023-03-21T00:28:01.047Z,8.19
2023-03-21T00:30:48.774Z,8.18
2023-03-21T00:33:35.962Z,8.12
2023-03-21T00:36:25.782Z,8.13
2023-03-21T00:39:12.460Z,8.09
2023-03-21T00:41:58.868Z,8.07
2023-03-21T00:44:45.466Z,8.01
2023-03-21T00:47:32.300Z,7.54
2023-03-21T00:50:19.096Z,8.05
2023-03-21T00:53:07.101Z,8.09
2023-03-21T00:55:53.601Z,8.13
2023-03-21T00:58:39.862Z,8.04
2023-03-21T01:01:31.828Z,8.04
2023-03-21T01:04:18.940Z,7.98
2023-03-21T01:07:05.448Z,7.93
2023-03-21T01:09:51.954Z,7.95
2023-03-21T01:12:38.827Z,7.92
2023-03-21T01:15:25.421Z,7.94
2023-03-21T01:18:12.342Z,7.92
2023-03-21T01:21:00.382Z,7.86
2023-03-21T01:23:47.476Z,7.91
2023-03-21T01:26:33.841Z,7.94
2023-03-21T01:29:20.179Z,8.10
2023-03-21T01:32:07.075Z,8.08
2023-03-21T01:34:53.659Z,8.06
2023-03-21T01:37:43.532Z,8.18
2023-03-21T01:40:30.647Z,8.12
2023-03-21T01:43:36.164Z,8.07
2023-03-21T01:50:17.159Z,7.83
2023-03-21T01:53:16.251Z,7.78
2023-03-21T01:56:11.437Z,7.72
2023-03-21T01:59:28.318Z,7.69
2023-03-21T02:02:33.729Z,7.65
2023-03-21T02:05:41.461Z,7.65
2023-03-21T02:08:39.253Z,7.63
2023-03-21T02:11:32.246Z,7.55
2023-03-21T02:14:28.977Z,7.67
2023-03-21T02:17:43.774Z,7.67
2023-03-21T02:21:11.402Z,7.69
2023-03-21T02:24:26.594Z,7.55
2023-03-21T02:27:18.792Z,7.56
2023-03-21T02:30:29.392Z,7.52
2023-03-21T02:33:52.663Z,7.40
2023-03-21T02:37:01.194Z,7.43
2023-03-21T02:40:12.011Z,7.41
2023-03-21T02:43:22.151Z,7.43
2023-03-21T02:46:28.340Z,7.42
2023-03-21T02:49:26.268Z,7.38
2023-03-21T02:52:35.605Z,7.37
2023-03-21T02:55:31.389Z,7.37
2023-03-21T02:58:24.506Z,7.40
2023-03-21T03:01:15.667Z,7.39
2023-03-21T03:04:28.134Z,7.38
2023-03-21T03:07:27.236Z,7.32
2023-03-21T03:10:27.620Z,7.32
2023-03-21T03:13:40.650Z,7.30
2023-03-21T03:16:36.729Z,7.28
2023-03-21T03:19:31.193Z,7.27
2023-03-21T03:22:27.933Z,7.22
2023-03-21T03:25:32.389Z,7.24
2023-03-21T03:28:30.873Z,7.18
2023-03-21T03:31:25.966Z,7.19
2023-03-21T03:34:22.030Z,7.31
2023-03-21T03:37:14.092Z,7.40
2023-03-21T03:40:09.335Z,7.06
2023-03-21T03:43:05.110Z,7.37
2023-03-21T03:46:03.084Z,7.31
2023-03-21T03:48:55.603Z,7.01
2023-03-21T03:51:57.452Z,6.77
2023-03-21T03:54:51.657Z,6.72
2023-03-21T03:57:40.795Z,6.65
2023-03-21T04:00:31.746Z,6.49
2023-03-21T04:03:18.758Z,6.47
2023-03-21T04:06:06.159Z,6.44
2023-03-21T04:08:52.542Z,6.39
2023-03-21T04:11:39.691Z,6.33
2023-03-21T04:14:35.543Z,6.30
2023-03-21T04:17:29.895Z,6.23
2023-03-21T04:20:23.773Z,6.16
2023-03-21T04:23:19.409Z,6.15
2023-03-21T04:26:08.493Z,6.12
2023-03-21T04:29:00.853Z,6.11
2023-03-21T04:32:24.547Z,6.07
2023-03-21T04:35:18.848Z,6.14
2023-03-21T04:38:05.490Z,6.10
2023-03-21T04:40:52.778Z,6.12
2023-03-21T04:43:41.486Z,6.27
2023-03-21T04:46:27.908Z,6.35
2023-03-21T04:49:14.210Z,6.33
2023-03-21T04:52:03.262Z,6.44
2023-03-21T04:54:49.887Z,6.67
2023-03-21T04:57:38.357Z,6.56
2023-03-21T05:00:25.763Z,6.51
2023-03-21T05:03:19.669Z,6.41
2023-03-21T05:06:08.616Z,6.27
2023-03-21T05:08:59.873Z,6.15
2023-03-21T05:11:46.625Z,6.09
2023-03-21T05:14:34.832Z,6.07
2023-03-21T05:17:23.312Z,6.00
2023-03-21T05:20:11.578Z,6.01
2023-03-21T05:22:58.104Z,6.00
2023-03-21T05:25:44.823Z,5.97
2023-03-21T05:28:39.898Z,6.04
2023-03-21T05:31:26.485Z,6.15
2023-03-21T05:34:24.568Z,6.15
2023-03-21T05:37:10.815Z,6.24
2023-03-21T05:40:10.301Z,6.24
2023-03-21T05:43:01.132Z,6.29
2023-03-21T05:45:48.407Z,6.47
2023-03-21T05:48:36.682Z,6.71
2023-03-21T05:51:33.935Z,6.70
2023-03-21T05:54:21.172Z,6.62
2023-03-21T05:57:09.106Z,6.48
2023-03-21T06:00:17.749Z,6.49
2023-03-21T06:03:09.555Z,6.62
2023-03-21T06:06:16.516Z,6.39
2023-03-21T06:09:11.844Z,6.29
2023-03-21T06:12:01.033Z,6.22
2023-03-21T06:14:51.811Z,6.37
2023-03-21T06:17:42.557Z,6.26
2023-03-21T06:20:31.320Z,6.12
2023-03-21T06:23:25.888Z,6.35
2023-03-21T06:26:13.108Z,6.37
2023-03-21T06:28:59.716Z,6.53
2023-03-21T06:31:47.044Z,6.81
2023-03-21T06:34:33.829Z,6.75
2023-03-21T06:37:22.793Z,6.85
2023-03-21T06:40:09.853Z,7.06
2023-03-21T06:42:56.479Z,7.53
2023-03-21T06:45:43.968Z,7.70
2023-03-21T06:48:31.509Z,7.80
2023-03-21T06:51:19.109Z,7.95
2023-03-21T06:54:28.826Z,8.09
2023-03-21T06:57:28.503Z,7.97
2023-03-21T07:00:15.659Z,8.35
2023-03-21T07:03:06.055Z,8.53
2023-03-21T07:05:54.157Z,8.63
2023-03-21T07:08:41.905Z,8.78
2023-03-21T07:11:28.577Z,9.01
2023-03-21T07:14:15.902Z,9.19
2023-03-21T07:17:02.345Z,9.38
2023-03-21T07:19:49.524Z,9.34
2023-03-21T07:22:38.899Z,9.53
2023-03-21T07:25:25.412Z,9.73
2023-03-21T07:28:12.443Z,9.88
2023-03-21T07:31:01.369Z,10.06
2023-03-21T07:33:48.151Z,10.28
2023-03-21T07:36:34.344Z,10.26
2023-03-21T07:39:21.169Z,10.36
2023-03-21T07:44:59.730Z,10.36
2023-03-21T07:47:52.221Z,10.42
2023-03-21T07:50:40.658Z,10.52
2023-03-21T07:53:27.195Z,10.41
2023-03-21T07:56:13.608Z,10.45
2023-03-21T07:58:59.803Z,10.58
2023-03-21T08:01:46.364Z,10.85
2023-03-21T08:04:37.624Z,10.92
2023-03-21T08:07:24.351Z,10.92
2023-03-21T08:10:11.871Z,11.08
2023-03-21T08:12:58.241Z,11.10
2023-03-21T08:15:44.901Z,11.33
2023-03-21T08:18:31.325Z,11.47
2023-03-21T08:21:18.078Z,11.20
2023-03-21T08:24:05.028Z,11.52
2023-03-21T08:26:51.985Z,11.58
2023-03-21T08:29:40.612Z,11.86
2023-03-21T08:32:31.252Z,11.96
2023-03-21T08:35:19.191Z,12.07
2023-03-21T08:38:07.036Z,12.21
2023-03-21T08:40:53.534Z,12.33
2023-03-21T08:43:40.207Z,12.64
2023-03-21T08:46:27.129Z,12.68
2023-03-21T08:49:13.826Z,12.68
2023-03-21T08:52:00.251Z,12.89
2023-03-21T08:54:46.825Z,12.95
2023-03-21T08:57:33.342Z,12.91
2023-03-21T09:00:20.909Z,13.07
2023-03-21T09:03:07.415Z,13.15
2023-03-21T09:05:54.335Z,13.34
2023-03-21T09:08:46.319Z,13.44
2023-03-21T09:11:33.346Z,13.46
2023-03-21T09:14:21.853Z,13.74
2023-03-21T09:17:10.521Z,13.66
2023-03-21T09:19:57.293Z,14.09
2023-03-21T09:22:43.692Z,14.40
2023-03-21T09:25:31.591Z,14.70
2023-03-21T09:28:18.220Z,15.08
2023-03-21T09:31:05.618Z,15.19
2023-03-21T09:33:53.361Z,15.29
2023-03-21T09:36:42.121Z,14.84
2023-03-21T09:39:28.995Z,15.15
2023-03-21T09:42:25.511Z,15.42
2023-03-21T09:45:31.719Z,15.59
2023-03-21T09:48:31.721Z,15.76
2023-03-21T09:51:19.382Z,15.80
2023-03-21T09:54:13.857Z,16.03
2023-03-21T09:57:07.790Z,16.05
2023-03-21T09:59:56.413Z,16.44
2023-03-21T10:02:49.641Z,16.29
2023-03-21T10:05:40.830Z,16.24
2023-03-21T10:08:47.130Z,16.45
2023-03-21T10:11:54.179Z,16.30
2023-03-21T10:14:48.199Z,16.64
2023-03-21T10:17:44.740Z,16.56
2023-03-21T10:20:37.507Z,16.58
2023-03-21T10:23:28.838Z,16.47
2023-03-21T10:26:16.979Z,16.40
2023-03-21T10:29:03.843Z,16.85
2023-03-21T10:31:52.853Z,16.88
2023-03-21T10:34:47.825Z,17.03
2023-03-21T10:37:35.917Z,17.06
2023-03-21T10:40:22.346Z,17.07
2023-03-21T10:43:37.800Z,16.97
2023-03-21T10:46:27.366Z,17.38
2023-03-21T10:49:16.013Z,17.27
2023-03-21T10:52:17.955Z,17.44
2023-03-21T10:55:28.696Z,17.60
2023-03-21T10:58:19.530Z,17.58
2023-03-21T11:01:10.433Z,17.53
2023-03-21T11:04:01.024Z,17.09
2023-03-21T11:06:54.857Z,16.85
2023-03-21T11:09:53.784Z,16.95
2023-03-21T11:12:46.337Z,16.85
2023-03-21T11:16:06.859Z,17.14
2023-03-21T11:19:00.316Z,17.05
2023-03-21T11:21:47.051Z,17.06
2023-03-21T11:24:35.340Z,17.08
2023-03-21T11:27:22.111Z,17.30
2023-03-21T11:30:21.370Z,17.08
2023-03-21T11:33:07.657Z,17.05
2023-03-21T11:36:04.064Z,17.17
2023-03-21T11:38:58.091Z,17.04
2023-03-21T11:41:51.334Z,17.11
2023-03-21T11:44:43.978Z,16.90
2023-03-21T11:47:31.664Z,16.85
2023-03-21T11:50:38.963Z,16.44
2023-03-21T11:53:46.518Z,16.10
2023-03-21T11:56:38.336Z,16.32
2023-03-21T11:59:41.614Z,15.87
2023-03-21T12:02:34.270Z,15.85
2023-03-21T12:05:28.650Z,15.88
2023-03-21T12:09:01.684Z,16.23
2023-03-21T12:12:00.430Z,16.32
2023-03-21T12:15:01.243Z,16.50
2023-03-21T12:18:02.573Z,16.78
2023-03-21T12:21:08.765Z,16.55
2023-03-21T12:24:07.629Z,16.60
2023-03-21T12:27:12.365Z,16.95
2023-03-21T12:30:07.833Z,17.03
2023-03-21T12:33:33.456Z,17.17
2023-03-21T12:36:41.897Z,17.30
2023-03-21T12:39:36.652Z,17.46
2023-03-21T12:42:47.520Z,17.60
2023-03-21T12:45:46.981Z,17.87
2023-03-21T12:48:44.033Z,17.54
2023-03-21T12:51:34.868Z,16.93
2023-03-21T12:54:38.661Z,17.18
2023-03-21T12:57:31.157Z,17.23
2023-03-21T13:00:33.629Z,17.46
2023-03-21T13:03:37.441Z,17.25
2023-03-21T13:06:28.109Z,17.52
2023-03-21T13:09:38.608Z,17.47
2023-03-21T13:12:43.053Z,17.51
2023-03-21T13:15:44.379Z,17.32
2023-03-21T13:18:53.755Z,17.36
2023-03-21T13:21:43.400Z,17.27
2023-03-21T13:24:38.048Z,17.32
2023-03-21T13:27:24.802Z,17.28
2023-03-21T13:30:14.210Z,17.34
2023-03-21T13:33:16.670Z,17.44
2023-03-21T13:36:08.459Z,17.45
2023-03-21T13:39:00.856Z,17.49
2023-03-21T13:41:49.723Z,17.49
2023-03-21T13:44:43.565Z,17.42
2023-03-21T13:47:41.264Z,17.68
2023-03-21T13:50:33.302Z,17.63
2023-03-21T13:53:23.024Z,17.50
2023-03-21T13:56:30.600Z,17.65
2023-03-21T13:59:36.949Z,17.82
2023-03-21T14:02:28.990Z,17.81
2023-03-21T14:05:22.823Z,17.30
2023-03-21T14:08:25.025Z,17.31
2023-03-21T14:11:19.803Z,17.35
2023-03-21T14:14:06.859Z,17.48
2023-03-21T14:16:53.967Z,17.53
2023-03-21T14:19:40.487Z,17.66
2023-03-21T14:22:28.231Z,17.61
2023-03-21T14:25:18.023Z,17.62
2023-03-21T14:28:13.695Z,17.59
2023-03-21T14:31:01.151Z,17.34
2023-03-21T14:33:57.541Z,17.26
2023-03-21T14:36:51.670Z,17.14
2023-03-21T14:39:43.453Z,17.14
2023-03-21T14:42:35.431Z,16.99
2023-03-21T14:45:30.677Z,17.14
2023-03-21T14:48:17.566Z,16.94
2023-03-21T14:51:12.277Z,17.04
2023-03-21T14:53:58.759Z,16.97
2023-03-21T14:56:48.613Z,16.73
2023-03-21T14:59:37.675Z,16.78
2023-03-21T15:02:28.163Z,16.58
2023-03-21T15:05:38.168Z,16.64
2023-03-21T15:08:27.476Z,16.55
2023-03-21T15:11:13.909Z,16.56
2023-03-21T15:14:03.819Z,16.57
2023-03-21T15:16:51.118Z,16.54
2023-03-21T15:19:40.117Z,16.65
2023-03-21T15:22:34.748Z,16.50
2023-03-21T15:25:27.699Z,16.51
2023-03-21T15:28:14.772Z,16.46
2023-03-21T15:31:01.688Z,16.32
2023-03-21T15:33:50.350Z,16.27
2023-03-21T15:36:44.607Z,16.29
2023-03-21T15:39:31.488Z,16.23
2023-03-21T15:42:37.524Z,16.11
2023-03-21T15:45:26.548Z,16.04
2023-03-21T15:48:14.649Z,15.98
2023-03-21T15:51:06.001Z,15.97
2023-03-21T15:53:56.991Z,15.92
2023-03-21T15:56:46.084Z,15.87
2023-03-21T15:59:36.955Z,15.82
2023-03-21T16:02:25.351Z,15.82
2023-03-21T16:05:20.817Z,15.76
2023-03-21T16:08:20.713Z,15.69
2023-03-21T16:11:19.634Z,15.58
2023-03-21T16:14:06.167Z,15.50
2023-03-21T16:16:52.913Z,15.44
2023-03-21T16:19:39.804Z,15.34
2023-03-21T16:22:28.277Z,15.31
2023-03-21T16:25:14.793Z,15.17
2023-03-21T16:28:01.315Z,14.82
2023-03-21T16:30:47.750Z,14.97
2023-03-21T16:33:34.235Z,14.97
2023-03-21T16:36:24.355Z,14.99
2023-03-21T16:39:18.702Z,14.89
2023-03-21T16:42:05.738Z,14.71
2023-03-21T16:44:52.219Z,14.70
2023-03-21T16:47:39.944Z,14.71
2023-03-21T16:50:26.832Z,14.66
2023-03-21T16:53:13.112Z,14.57
2023-03-21T16:56:02.643Z,14.60
2023-03-21T16:58:49.578Z,14.36
2023-03-21T17:01:38.324Z,14.21
2023-03-21T17:04:24.823Z,14.04
2023-03-21T17:07:16.018Z,13.95
2023-03-21T17:10:02.331Z,13.84
2023-03-21T17:12:49.233Z,13.68
2023-03-21T17:15:35.841Z,13.40
2023-03-21T17:18:22.108Z,13.41
2023-03-21T17:21:17.276Z,13.22
2023-03-21T17:24:03.854Z,13.08
2023-03-21T17:26:50.669Z,13.00
2023-03-21T17:29:37.747Z,12.90
2023-03-21T17:32:26.136Z,12.84
2023-03-21T17:35:13.442Z,12.79
2023-03-21T17:37:59.849Z,12.73
2023-03-21T17:40:46.520Z,12.71
2023-03-21T17:43:33.012Z,12.62
2023-03-21T17:46:22.382Z,12.45
2023-03-21T17:49:13.400Z,12.42
2023-03-21T17:52:00.074Z,12.33
2023-03-21T17:54:46.532Z,12.19
2023-03-21T17:57:32.940Z,12.15
2023-03-21T18:00:23.165Z,12.08
2023-03-21T18:03:09.840Z,12.00
2023-03-21T18:05:56.043Z,12.00
2023-03-21T18:08:42.717Z,11.78
2023-03-21T18:11:29.434Z,11.71
2023-03-21T18:14:19.077Z,11.73
2023-03-21T18:17:06.368Z,11.71
2023-03-21T18:19:53.853Z,11.59
2023-03-21T18:22:40.703Z,11.58
2023-03-21T18:25:27.214Z,11.53
2023-03-21T18:28:14.052Z,11.69
2023-03-21T18:31:10.393Z,11.78
2023-03-21T18:33:59.106Z,11.80
2023-03-21T18:36:45.851Z,11.85
2023-03-21T18:39:33.502Z,11.59
2023-03-21T18:42:23.561Z,11.51
2023-03-21T18:45:11.402Z,11.33
2023-03-21T18:47:57.819Z,11.35
2023-03-21T18:50:43.938Z,11.20
2023-03-21T18:53:30.275Z,11.12
2023-03-21T18:59:23.842Z,11.11
2023-03-21T19:02:13.846Z,11.09
2023-03-21T19:05:00.359Z,11.04
2023-03-21T19:07:48.016Z,11.08
2023-03-21T19:10:35.907Z,11.07
2023-03-21T19:13:22.583Z,11.02
2023-03-21T19:16:11.287Z,10.84
2023-03-21T19:18:58.316Z,10.86
2023-03-21T19:21:49.779Z,10.72
2023-03-21T19:24:36.688Z,10.72
2023-03-21T19:27:23.478Z,10.67
2023-03-21T19:30:15.323Z,10.66
2023-03-21T19:33:02.474Z,10.56
2023-03-21T19:36:08.829Z,10.60
2023-03-21T19:38:57.104Z,10.54
2023-03-21T19:41:43.221Z,10.47
2023-03-21T19:44:29.731Z,10.37
2023-03-21T19:47:16.302Z,10.31
2023-03-21T19:53:09.514Z,10.10
2023-03-21T19:55:56.190Z,10.19
2023-03-21T19:58:42.613Z,10.18
2023-03-21T20:01:29.097Z,10.17
2023-03-21T20:04:16.831Z,10.18
2023-03-21T20:07:03.096Z,10.18
2023-03-21T20:09:52.960Z,10.21
2023-03-21T20:12:48.386Z,10.42
2023-03-21T20:15:45.686Z,10.52
2023-03-21T20:18:35.263Z,10.24
2023-03-21T20:21:25.608Z,10.31
2023-03-21T20:24:12.868Z,10.26
2023-03-21T20:26:59.589Z,10.11
2023-03-21T20:30:08.772Z,10.04
2023-03-21T20:32:52.901Z,9.93
2023-03-21T20:36:24.065Z,9.88
2023-03-21T20:38:45.850Z,9.82
2023-03-21T20:41:32.324Z,9.82
2023-03-21T20:47:25.606Z,9.75
2023-03-21T20:50:21.989Z,9.61
2023-03-21T20:53:09.588Z,9.62
2023-03-21T20:55:56.436Z,9.55
2023-03-21T20:59:04.601Z,9.47
2023-03-21T21:01:49.598Z,9.36
2023-03-21T21:04:52.742Z,9.19
2023-03-21T21:07:43.533Z,9.12
2023-03-21T21:10:33.611Z,9.01
2023-03-21T21:13:21.289Z,8.91
2023-03-21T21:16:09.497Z,8.74
2023-03-21T21:18:56.128Z,8.87
2023-03-21T21:21:42.872Z,8.84
2023-03-21T21:24:31.697Z,8.91
2023-03-21T21:27:17.951Z,8.89
2023-03-21T21:30:05.032Z,8.95
2023-03-21T21:32:51.398Z,8.98
2023-03-21T21:35:38.480Z,8.95
2023-03-21T21:38:26.574Z,9.07
2023-03-21T21:41:19.269Z,9.06
2023-03-21T21:44:06.660Z,8.90
2023-03-21T21:46:53.322Z,9.16
2023-03-21T21:49:39.830Z,9.15
2023-03-21T21:52:26.082Z,9.26
2023-03-21T21:55:13.116Z,8.98
2023-03-21T21:58:00.998Z,8.83
2023-03-21T22:00:50.051Z,8.98
2023-03-21T22:03:36.604Z,8.69
2023-03-21T22:06:23.682Z,8.69
2023-03-21T22:09:10.933Z,8.49
2023-03-21T22:11:57.240Z,8.32
2023-03-21T22:14:43.894Z,8.21
2023-03-21T22:17:30.713Z,8.06
2023-03-21T22:20:20.320Z,7.96
2023-03-21T22:23:06.607Z,7.86
2023-03-21T22:25:53.975Z,7.77
2023-03-21T22:28:42.196Z,7.64
2023-03-21T22:31:29.509Z,7.54
2023-03-21T22:34:16.032Z,7.44
2023-03-21T22:37:02.692Z,7.40
2023-03-21T22:39:49.381Z,7.42
2023-03-21T22:42:37.157Z,7.47
2023-03-21T22:45:23.574Z,7.49
2023-03-21T22:48:09.969Z,7.49
2023-03-21T22:50:57.850Z,7.44
2023-03-21T22:53:44.057Z,7.36
2023-03-21T22:56:30.755Z,7.21
2023-03-21T22:59:17.412Z,7.07
2023-03-21T23:02:03.727Z,7.15
2023-03-21T23:04:49.986Z,7.11
2023-03-21T23:07:36.324Z,6.92
2023-03-21T23:10:22.656Z,6.94
2023-03-21T23:13:09.091Z,7.07
2023-03-21T23:15:55.510Z,6.96
2023-03-21T23:18:42.981Z,6.89
2023-03-21T23:21:32.064Z,6.80
2023-03-21T23:24:18.842Z,6.61
2023-03-21T23:27:05.360Z,6.55
2023-03-21T23:29:52.733Z,6.44
2023-03-21T23:32:39.057Z,6.34
2023-03-21T23:35:25.747Z,6.28
2023-03-21T23:38:12.360Z,6.16
2023-03-21T23:41:04.527Z,6.11
2023-03-21T23:43:51.648Z,6.03
2023-03-21T23:46:38.438Z,5.95
2023-03-21T23:49:24.987Z,5.88
2023-03-21T23:52:11.458Z,5.70
2023-03-21T23:54:57.794Z,5.76
2023-03-21T23:57:44.195Z,5.71
